Time;durP1;ratioP1;P1;durP2;ratioP2;P2;SDS_P1;SDS_P2;PMS_P1;PMS_P2;Temp;Humidity;BMP_temperature;BMP_pressure;BME280_temperature;BME280_humidity;BME280_pressure;Samples;Min_cycle;Max_cycle;Signal;HPM_P1;HPM_P2
2024/02/24 00:04:12;;;;;;;11.30;6.70;;;;;;;7.33;100.00;97534.83;272532;1274;23506;-85
2024/02/24 00:10:14;;;;;;;9.40;5.60;;;;;;;7.30;100.00;97529.15;272147;1272;22374;-85
2024/02/24 00:16:16;;;;;;;20.50;7.10;;;;;;;7.28;100.00;97535.69;272314;1273;22200;-86
2024/02/24 00:22:18;;;;;;;11.00;6.00;;;;;;;7.29;100.00;97524.88;272958;1275;22314;-85
2024/02/24 00:28:20;;;;;;;10.30;6.10;;;;;;;7.30;100.00;97503.63;272651;1275;22970;-85
2024/02/24 00:35:09;;;;;;;8.10;4.50;;;;;;;7.26;100.00;97493.52;272528;1275;23444;-85
2024/02/24 00:41:12;;;;;;;10.00;6.00;;;;;;;7.16;100.00;97500.30;272156;1273;23072;-85
2024/02/24 00:47:13;;;;;;;14.50;6.40;;;;;;;7.07;100.00;97505.64;272730;1275;22270;-85
2024/02/24 00:53:15;;;;;;;12.90;7.20;;;;;;;7.01;100.00;97505.25;272316;1273;22286;-85
2024/02/24 00:59:18;;;;;;;12.90;7.40;;;;;;;6.91;100.00;97492.26;272762;1275;22192;-85
2024/02/24 01:05:20;;;;;;;13.40;7.40;;;;;;;6.87;100.00;97480.52;272135;1274;23132;-85
2024/02/24 01:11:22;;;;;;;11.80;5.30;;;;;;;6.81;100.00;97480.66;272181;1274;23051;-86
2024/02/24 01:17:23;;;;;;;10.10;6.00;;;;;;;6.82;100.00;97498.53;272163;1268;22408;-85
2024/02/24 01:23:26;;;;;;;11.00;5.70;;;;;;;6.79;100.00;97483.69;272429;1274;22340;-85
2024/02/24 01:29:28;;;;;;;11.60;6.70;;;;;;;6.76;100.00;97479.02;272140;1274;22401;-86
2024/02/24 01:35:30;;;;;;;8.30;5.30;;;;;;;6.78;100.00;97459.91;272318;1274;22317;-85
2024/02/24 01:41:32;;;;;;;9.80;5.60;;;;;;;6.83;100.00;97472.04;272161;1275;22404;-86
2024/02/24 01:47:37;;;;;;;8.30;5.60;;;;;;;6.81;100.00;97464.98;272261;1273;23571;-85
2024/02/24 01:53:41;;;;;;;10.80;6.40;;;;;;;6.76;100.00;97480.02;272271;1267;23469;-85
2024/02/24 01:59:42;;;;;;;15.40;7.90;;;;;;;6.67;100.00;97472.16;272692;1277;22226;-86
2024/02/24 02:05:46;;;;;;;17.10;9.90;;;;;;;6.57;100.00;97467.95;272277;1273;22950;-85
2024/02/24 02:11:48;;;;;;;17.20;9.70;;;;;;;6.68;100.00;97456.09;272022;1273;22238;-84
2024/02/24 02:17:50;;;;;;;14.60;8.30;;;;;;;7.20;100.00;97455.66;272219;1273;22172;-85
2024/02/24 02:23:51;;;;;;;9.80;7.00;;;;;;;7.88;100.00;97440.38;272058;1274;22423;-85
2024/02/24 02:29:53;;;;;;;8.90;6.80;;;;;;;8.44;100.00;97427.69;272074;1273;23920;-85
2024/02/24 02:48:09;;;;;;;7.60;5.60;;;;;;;9.01;100.00;97414.30;263367;1292;2120659;-91
2024/02/24 02:54:19;;;;;;;7.30;5.30;;;;;;;9.24;99.78;97383.05;268836;1277;22584;-91
2024/02/24 03:00:22;;;;;;;9.00;6.40;;;;;;;9.34;98.19;97355.27;268908;1277;24264;-91
2024/02/24 03:06:32;;;;;;;8.80;5.90;;;;;;;9.42;96.58;97336.06;268479;1278;22556;-91
2024/02/24 03:12:42;;;;;;;7.10;5.90;;;;;;;9.54;94.88;97337.18;268662;1275;22609;-92
2024/02/24 03:18:48;;;;;;;7.00;5.70;;;;;;;9.67;94.10;97353.66;268655;1278;24084;-91
2024/02/24 03:24:54;;;;;;;8.20;6.00;;;;;;;9.82;92.82;97380.96;268847;1276;23748;-91
2024/02/24 03:30:58;;;;;;;7.40;5.70;;;;;;;9.91;94.19;97412.64;268679;1276;22529;-91
2024/02/24 03:37:04;;;;;;;8.40;5.80;;;;;;;9.88;95.12;97432.36;268888;1276;22593;-92
2024/02/24 03:43:08;;;;;;;9.80;7.10;;;;;;;9.79;95.14;97442.85;268822;1278;24242;-92
2024/02/24 03:49:13;;;;;;;11.00;6.80;;;;;;;9.73;95.08;97434.00;268955;1276;22572;-92
2024/02/24 03:55:19;;;;;;;12.20;7.00;;;;;;;9.72;93.59;97442.28;269293;1274;22611;-92
2024/02/24 04:01:23;;;;;;;11.40;7.20;;;;;;;9.67;93.52;97439.45;270153;1267;22591;-92
2024/02/24 04:07:26;;;;;;;12.20;6.70;;;;;;;9.59;93.28;97442.80;273173;1267;23310;-91
2024/02/24 04:13:30;;;;;;;7.70;6.10;;;;;;;9.53;93.43;97448.25;273424;1259;23184;-93
2024/02/24 04:19:34;;;;;;;6.00;5.00;;;;;;;9.47;94.13;97454.46;271937;1266;22589;-92
2024/02/24 04:25:39;;;;;;;6.50;4.60;;;;;;;9.44;94.61;97457.94;270065;1268;22561;-91
2024/02/24 04:31:43;;;;;;;4.10;3.30;;;;;;;9.51;94.43;97458.64;270141;1267;22535;-92
2024/02/24 04:37:46;;;;;;;4.60;1.40;;;;;;;9.73;93.75;97475.15;270444;1267;22680;-91
2024/02/24 04:43:52;;;;;;;3.60;1.90;;;;;;;10.02;91.98;97489.77;270377;1266;23807;-93
2024/02/24 04:50:01;;;;;;;2.50;2.20;;;;;;;10.20;90.85;97506.32;270484;1267;22568;-91
2024/02/24 04:56:06;;;;;;;3.50;2.00;;;;;;;10.31;90.17;97517.52;273306;1267;23050;-90
2024/02/24 05:02:08;;;;;;;2.00;1.80;;;;;;;10.23;90.12;97528.63;270921;1267;22570;-90
2024/02/24 05:08:11;;;;;;;2.50;1.80;;;;;;;10.06;90.74;97534.72;270151;1267;22513;-91
2024/02/24 05:14:24;;;;;;;2.80;1.60;;;;;;;9.85;91.29;97535.92;270548;1267;22574;-90
2024/02/24 05:21:06;;;;;;;2.00;1.40;;;;;;;9.70;91.54;97544.34;270795;1267;22579;-90
2024/02/24 05:27:44;;;;;;;2.20;1.50;;;;;;;9.65;91.55;97554.86;272766;1267;23361;-91
2024/02/24 05:34:31;;;;;;;1.60;1.20;;;;;;;9.67;91.52;97569.83;270708;1267;22529;-91
2024/02/24 05:40:51;;;;;;;2.20;1.80;;;;;;;9.75;91.39;97577.80;270650;1266;24317;-92
2024/02/24 05:46:54;;;;;;;2.30;1.80;;;;;;;9.76;91.35;97584.50;270444;1267;22551;-92
2024/02/24 05:54:35;;;;;;;;;;;;;;;;;;;;;
2024/02/24 06:01:11;;;;;;;6.20;3.90;;;;;;;9.79;91.10;97565.82;270531;1267;22360;-90
2024/02/24 06:07:42;;;;;;;3.70;2.60;;;;;;;9.88;91.04;97558.40;270805;1267;22628;-91
2024/02/24 06:13:54;;;;;;;5.20;1.70;;;;;;;9.94;91.17;97565.14;270446;1267;24944;-91
2024/02/24 06:20:01;;;;;;;2.40;1.50;;;;;;;10.06;90.96;97562.46;270968;1267;22577;-91
2024/02/24 06:26:11;;;;;;;3.40;2.30;;;;;;;10.31;90.30;97581.83;270821;1267;22543;-92
2024/02/24 06:32:16;;;;;;;3.70;2.20;;;;;;;10.55;89.68;97582.73;270468;1267;22545;-91
2024/02/24 06:38:48;;;;;;;5.80;4.30;;;;;;;10.64;89.54;97599.23;270738;1267;22526;-91
2024/02/24 06:45:35;;;;;;;;;;;;;;;;;;;;;
2024/02/24 06:52:28;;;;;;;7.70;4.90;;;;;;;10.47;89.37;97612.38;270446;1267;22488;-91
2024/02/24 06:58:41;;;;;;;39.00;17.90;;;;;;;10.37;89.47;97637.09;270741;1267;22646;-91
2024/02/24 07:11:06;;;;;;;9.70;5.10;;;;;;;10.31;90.17;97664.59;263035;1305;544926;-91
2024/02/24 07:18:25;;;;;;;4.00;2.50;;;;;;;10.30;90.53;97673.66;269275;1279;22492;-91
2024/02/24 07:25:41;;;;;;;2.30;1.80;;;;;;;10.36;90.37;97682.83;267179;1263;2637009;-91
2024/02/24 07:32:36;;;;;;;1.20;1.00;;;;;;;10.58;89.49;97677.62;270451;1254;22558;-92
2024/02/24 07:38:46;;;;;;;1.30;0.90;;;;;;;10.83;88.62;97686.20;270334;1269;22509;-91
2024/02/24 07:44:50;;;;;;;1.40;0.90;;;;;;;10.93;88.98;97699.38;270470;1269;22565;-90
2024/02/24 07:50:57;;;;;;;2.90;1.50;;;;;;;11.05;88.87;97720.92;270044;1269;24058;-90
2024/02/24 07:57:12;;;;;;;2.90;1.50;;;;;;;11.14;88.53;97738.74;270393;1269;22614;-91
2024/02/24 08:04:16;;;;;;;;;;;;;;;;;;;;;
2024/02/24 08:10:40;;;;;;;5.70;4.00;;;;;;;10.26;89.89;97818.45;270663;1268;22711;-91
2024/02/24 08:17:26;;;;;;;5.80;3.20;;;;;;;9.31;92.21;97839.41;270229;1270;22658;-92
2024/02/24 08:24:09;;;;;;;6.70;2.60;;;;;;;8.52;94.11;97869.80;270339;1268;22576;-91
2024/02/24 08:30:42;;;;;;;4.80;2.60;;;;;;;8.05;96.00;97880.42;270246;1269;25268;-91
2024/02/24 08:37:14;;;;;;;5.00;2.30;;;;;;;7.88;97.19;97898.11;273191;1261;22623;-90
2024/02/24 08:43:20;;;;;;;3.30;2.00;;;;;;;7.83;97.69;97903.70;269993;1268;22639;-92
2024/02/24 08:49:29;;;;;;;2.50;1.70;;;;;;;7.78;98.01;97902.35;270127;1269;23570;-91
2024/02/24 08:55:33;;;;;;;5.30;2.80;;;;;;;7.73;98.41;97912.29;270495;1269;23341;-92
2024/02/24 09:02:02;;;;;;;5.00;2.80;;;;;;;7.86;99.42;97914.84;270470;1269;25200;-92
2024/02/24 09:08:48;;;;;;;5.50;3.10;;;;;;;7.90;99.76;97923.27;270456;1269;23024;-91
2024/02/24 09:15:34;;;;;;;6.30;3.60;;;;;;;8.03;99.99;97938.96;273295;1269;23573;-91
2024/02/24 09:21:48;;;;;;;7.70;3.90;;;;;;;8.24;100.00;97951.69;271812;1269;23830;-92
2024/02/24 09:28:18;;;;;;;8.30;4.00;;;;;;;8.34;99.90;97966.14;270804;1269;23345;-91
2024/02/24 09:35:01;;;;;;;5.80;4.40;;;;;;;8.38;99.93;97983.38;270368;1269;23338;-91
2024/02/24 09:41:36;;;;;;;4.50;2.60;;;;;;;8.76;99.66;97997.60;270502;1269;23701;-90
2024/02/24 09:47:49;;;;;;;3.60;2.30;;;;;;;9.29;99.67;98002.64;270254;1269;22557;-90
2024/02/24 09:54:18;;;;;;;3.40;2.10;;;;;;;10.48;99.36;98013.53;273633;1267;22568;-91
2024/02/24 10:00:59;;;;;;;2.20;1.50;;;;;;;10.52;94.77;98026.90;273029;1266;23889;-91
2024/02/24 10:07:34;;;;;;;3.50;1.30;;;;;;;10.74;93.79;98033.67;273403;1251;22347;-90
2024/02/24 10:13:37;;;;;;;3.50;1.60;;;;;;;11.52;92.11;98042.19;273530;1267;22248;-90
2024/02/24 10:19:41;;;;;;;3.40;2.10;;;;;;;11.60;88.78;98048.70;273434;1269;23326;-92
2024/02/24 10:25:47;;;;;;;3.80;1.70;;;;;;;11.64;88.61;98051.58;273506;1257;22332;-91
2024/02/24 10:31:49;;;;;;;5.90;2.10;;;;;;;11.73;88.50;98059.58;273399;1265;22396;-92
2024/02/24 10:38:16;;;;;;;;;;;;;;;;;;;;;
2024/02/24 10:44:35;;;;;;;3.20;2.20;;;;;;;11.48;87.98;98083.57;273697;1266;22292;-91
2024/02/24 10:51:16;;;;;;;4.20;1.80;;;;;;;10.95;87.47;98093.17;273760;1266;23264;-90
2024/02/24 10:57:31;;;;;;;1.90;1.10;;;;;;;10.23;86.97;98090.98;273682;1267;22615;-92
2024/02/24 11:03:39;;;;;;;;;;;;;;;9.96;87.87;98098.52;273214;1266;22656;-91
2024/02/24 11:09:46;;;;;;;5.20;2.20;;;;;;;9.94;88.31;98103.75;273561;1267;22440;-91
2024/02/24 11:15:54;;;;;;;4.50;2.40;;;;;;;10.17;88.88;98106.87;273363;1266;22494;-90
2024/02/24 11:22:21;;;;;;;5.80;3.00;;;;;;;10.49;88.99;98111.97;273548;1267;22888;-91
2024/02/24 11:28:27;;;;;;;5.00;3.00;;;;;;;10.65;87.84;98121.45;273806;1267;22217;-91
2024/02/24 11:34:34;;;;;;;4.90;3.00;;;;;;;10.38;88.32;98133.48;273348;1266;22362;-90
2024/02/24 11:40:36;;;;;;;5.20;3.70;;;;;;;10.22;88.76;98145.24;273319;1267;22321;-91
2024/02/24 11:46:40;;;;;;;5.40;3.60;;;;;;;10.20;88.75;98146.65;273162;1267;22249;-91
2024/02/24 11:52:43;;;;;;;4.40;3.10;;;;;;;10.19;89.13;98150.48;273260;1266;22415;-90
2024/02/24 11:58:47;;;;;;;4.60;3.20;;;;;;;10.27;89.38;98152.27;273250;1267;22462;-91
2024/02/24 12:04:53;;;;;;;4.90;3.10;;;;;;;10.35;89.22;98152.41;273370;1266;22500;-92
2024/02/24 12:11:10;;;;;;;5.70;3.90;;;;;;;10.39;89.45;98157.88;273449;1266;22468;-91
2024/02/24 12:17:13;;;;;;;5.50;3.80;;;;;;;10.54;89.99;98163.79;273361;1266;22080;-90
2024/02/24 12:23:16;;;;;;;6.70;3.50;;;;;;;10.76;89.57;98165.77;273345;1266;24368;-90
2024/02/24 12:29:18;;;;;;;6.00;3.50;;;;;;;10.88;88.84;98165.73;273502;1266;22403;-92
2024/02/24 12:35:24;;;;;;;6.30;3.70;;;;;;;10.99;88.99;98182.27;273550;1265;22311;-92
2024/02/24 12:41:26;;;;;;;5.90;3.50;;;;;;;11.06;88.55;98190.95;273450;1269;22383;-91
2024/02/24 12:47:28;;;;;;;5.80;3.50;;;;;;;11.03;88.76;98197.52;273404;1266;22229;-92
2024/02/24 12:53:38;;;;;;;5.10;3.50;;;;;;;11.09;88.87;98202.74;273343;1266;22426;-90
2024/02/24 12:59:43;;;;;;;8.30;4.00;;;;;;;11.15;88.10;98203.60;273501;1266;22317;-91
2024/02/24 13:05:46;;;;;;;5.70;3.80;;;;;;;11.14;87.99;98209.62;273484;1266;22361;-91
2024/02/24 13:11:52;;;;;;;5.40;3.30;;;;;;;11.21;87.90;98216.88;273470;1266;22970;-90
2024/02/24 13:17:58;;;;;;;5.70;3.40;;;;;;;11.31;87.95;98225.13;273395;1266;22227;-91
2024/02/24 13:24:08;;;;;;;6.40;4.00;;;;;;;11.34;87.70;98235.92;273459;1266;22446;-91
2024/02/24 13:30:11;;;;;;;6.00;3.40;;;;;;;11.29;87.74;98239.14;273484;1267;22942;-90
2024/02/24 13:36:29;;;;;;;7.60;3.70;;;;;;;11.23;87.82;98236.82;273428;1270;22259;-90
2024/02/24 13:42:31;;;;;;;5.60;3.90;;;;;;;11.23;87.72;98233.46;273482;1266;24359;-91
2024/02/24 13:48:34;;;;;;;4.50;3.40;;;;;;;11.24;88.24;98239.17;273516;1266;22374;-91
2024/02/24 13:54:45;;;;;;;6.80;3.30;;;;;;;11.24;87.57;98246.77;273497;1261;22930;-91
2024/02/24 14:00:47;;;;;;;17.10;9.90;;;;;;;11.19;87.51;98244.82;273425;1266;22410;-91
2024/02/24 14:06:49;;;;;;;5.90;4.00;;;;;;;11.10;86.92;98247.03;273368;1266;22406;-90
2024/02/24 14:12:53;;;;;;;5.90;3.30;;;;;;;10.97;86.95;98249.97;273433;1266;22185;-91
2024/02/24 14:19:02;;;;;;;6.10;2.90;;;;;;;10.97;87.85;98267.50;273353;1266;22221;-92
2024/02/24 14:25:07;;;;;;;5.50;3.00;;;;;;;11.00;87.71;98279.14;273473;1266;23578;-91
2024/02/24 14:31:14;;;;;;;4.30;2.70;;;;;;;10.95;87.02;98286.20;273483;1266;23118;-91
2024/02/24 14:37:25;;;;;;;7.50;3.00;;;;;;;10.90;87.54;98288.55;273269;1266;22242;-92
2024/02/24 14:43:49;;;;;;;5.40;3.40;;;;;;;10.79;87.78;98299.67;273325;1266;23408;-92
2024/02/24 14:49:52;;;;;;;5.60;3.30;;;;;;;10.68;87.54;98304.14;273449;1266;22396;-92
2024/02/24 14:55:57;;;;;;;5.60;3.60;;;;;;;10.62;87.15;98305.23;273354;1266;22335;-92
2024/02/24 15:02:14;;;;;;;5.80;3.30;;;;;;;10.60;87.74;98311.65;273262;1266;23707;-92
2024/02/24 15:08:17;;;;;;;7.30;3.80;;;;;;;10.59;87.94;98319.55;273450;1266;22429;-92
2024/02/24 15:14:19;;;;;;;10.10;3.90;;;;;;;10.46;87.68;98329.47;273443;1266;22342;-91
2024/02/24 15:20:22;;;;;;;10.60;4.10;;;;;;;10.29;87.61;98337.97;273408;1267;23072;-91
2024/02/24 15:26:38;;;;;;;8.60;4.20;;;;;;;10.18;87.74;98347.56;273549;1266;22601;-91
2024/02/24 15:32:40;;;;;;;6.50;3.80;;;;;;;10.04;88.42;98351.25;273234;1266;22275;-90
2024/02/24 15:38:42;;;;;;;8.20;3.70;;;;;;;9.99;88.30;98358.17;273157;1267;22459;-91
2024/02/24 15:44:45;;;;;;;7.20;4.40;;;;;;;9.89;87.76;98364.02;273300;1266;22851;-91
2024/02/24 15:50:48;;;;;;;7.90;3.70;;;;;;;9.75;87.80;98373.64;273403;1266;23518;-92
2024/02/24 15:56:52;;;;;;;11.40;3.60;;;;;;;9.55;87.79;98380.48;273336;1267;22219;-91
2024/02/24 16:02:56;;;;;;;7.00;3.80;;;;;;;9.34;88.02;98389.34;273368;1266;23151;-91
2024/02/24 16:09:00;;;;;;;7.60;3.20;;;;;;;9.16;88.13;98396.70;273308;1267;23835;-92
2024/02/24 16:15:12;;;;;;;8.10;4.20;;;;;;;9.01;88.54;98402.05;273295;1267;23584;-92
2024/02/24 16:21:18;;;;;;;8.90;4.20;;;;;;;8.81;88.94;98412.04;273406;1267;22974;-91
2024/02/24 16:27:21;;;;;;;28.40;13.30;;;;;;;8.57;89.42;98425.05;273295;1266;22240;-92
2024/02/24 16:33:24;;;;;;;124.40;40.80;;;;;;;8.37;90.00;98435.21;273404;1267;22372;-91
2024/02/24 16:39:38;;;;;;;27.00;15.00;;;;;;;8.20;90.42;98444.59;273403;1251;23149;-91
2024/02/24 16:46:06;;;;;;;19.60;10.90;;;;;;;7.98;90.90;98452.10;273357;1267;22953;-91
2024/02/24 16:52:13;;;;;;;15.50;7.70;;;;;;;7.72;91.30;98457.83;273260;1251;22369;-91
2024/02/24 16:58:18;;;;;;;24.20;13.70;;;;;;;7.49;91.94;98467.92;273270;1266;22404;-92
2024/02/24 17:04:22;;;;;;;24.10;13.20;;;;;;;7.32;92.39;98480.12;273338;1266;22234;-91
2024/02/24 17:10:25;;;;;;;24.60;13.90;;;;;;;7.19;93.13;98483.41;273329;1266;22258;-91
2024/02/24 17:16:31;;;;;;;20.60;12.00;;;;;;;7.07;93.65;98485.61;273232;1266;22397;-92
2024/02/24 17:22:36;;;;;;;29.50;14.30;;;;;;;6.91;94.03;98490.64;273352;1266;22437;-91
2024/02/24 17:28:42;;;;;;;30.50;17.30;;;;;;;6.71;94.30;98496.47;273515;1257;22308;-91
2024/02/24 17:34:47;;;;;;;19.20;12.10;;;;;;;6.51;94.79;98512.45;273335;1266;22345;-92
2024/02/24 17:40:49;;;;;;;26.70;14.70;;;;;;;6.41;95.25;98524.28;273281;1266;22240;-90
2024/02/24 17:46:55;;;;;;;30.90;16.40;;;;;;;6.31;95.51;98527.90;273406;1266;22238;-92
2024/02/24 17:52:58;;;;;;;35.70;20.20;;;;;;;6.23;95.79;98520.83;273320;1266;22384;-91
2024/02/24 17:59:03;;;;;;;35.60;20.80;;;;;;;6.14;96.17;98520.25;273387;1266;22244;-91
2024/02/24 18:05:10;;;;;;;47.00;23.30;;;;;;;6.06;96.67;98525.35;273449;1266;23633;-91
2024/02/24 18:11:19;;;;;;;42.40;23.30;;;;;;;5.99;96.80;98531.02;273557;1265;22504;-91
2024/02/24 18:17:23;;;;;;;44.20;23.70;;;;;;;5.88;97.21;98531.40;273471;1266;22453;-91
2024/02/24 18:23:26;;;;;;;39.00;20.10;;;;;;;5.78;97.35;98533.30;273268;1266;23463;-91
2024/02/24 18:29:32;;;;;;;34.90;18.90;;;;;;;5.62;97.56;98535.27;273388;1266;22428;-92
2024/02/24 18:35:49;;;;;;;44.50;23.10;;;;;;;5.53;98.88;98532.34;273493;1266;23219;-91
2024/02/24 18:42:00;;;;;;;49.00;23.40;;;;;;;5.44;99.03;98549.29;273495;1266;23686;-91
2024/02/24 18:48:08;;;;;;;59.00;27.70;;;;;;;5.34;99.13;98544.52;273575;1266;22303;-90
2024/02/24 18:54:18;;;;;;;71.30;32.90;;;;;;;5.19;99.59;98548.28;273422;1266;22456;-91
2024/02/24 19:00:26;;;;;;;76.90;35.80;;;;;;;5.15;99.95;98551.59;273477;1266;22249;-91
2024/02/24 19:07:03;;;;;;;74.80;35.30;;;;;;;5.16;100.00;98553.77;273284;1266;23803;-91
2024/02/24 19:13:13;;;;;;;64.80;33.60;;;;;;;5.14;100.00;98553.89;265918;1254;10001905;-92
2024/02/24 19:19:18;;;;;;;64.90;32.40;;;;;;;5.01;100.00;98547.66;273346;1265;23802;-91
2024/02/24 19:25:30;;;;;;;59.70;28.20;;;;;;;4.84;100.00;98542.17;271828;1265;1906811;-92
2024/02/24 19:31:38;;;;;;;82.20;38.70;;;;;;;4.73;100.00;98551.33;273379;1266;22470;-92
2024/02/24 19:37:42;;;;;;;88.70;40.40;;;;;;;4.66;100.00;98560.52;273352;1266;22370;-91
2024/02/24 19:43:56;;;;;;;89.40;43.10;;;;;;;4.59;100.00;98563.59;273437;1266;22442;-92
2024/02/24 19:50:07;;;;;;;94.80;45.10;;;;;;;4.54;100.00;98563.91;273399;1266;22814;-92
2024/02/24 19:56:21;;;;;;;93.60;49.50;;;;;;;4.40;100.00;98567.62;273323;1266;22245;-91
2024/02/24 20:02:30;;;;;;;69.10;38.90;;;;;;;4.30;100.00;98552.61;273507;1266;22241;-90
2024/02/24 20:08:37;;;;;;;90.00;46.90;;;;;;;4.24;100.00;98554.70;273394;1266;23670;-90
2024/02/24 20:14:39;;;;;;;120.30;56.00;;;;;;;4.27;100.00;98555.47;273383;1265;23669;-91
2024/02/24 20:20:49;;;;;;;104.90;52.10;;;;;;;4.29;100.00;98568.23;273323;1266;22464;-91
2024/02/24 20:26:58;;;;;;;94.00;48.10;;;;;;;4.20;100.00;98568.28;273316;1266;22549;-91
2024/02/24 20:33:09;;;;;;;101.00;48.20;;;;;;;4.15;100.00;98564.05;273290;1266;22352;-92
2024/02/24 20:39:30;;;;;;;93.90;44.50;;;;;;;4.08;100.00;98560.58;273409;1266;22346;-91
2024/02/24 20:45:40;;;;;;;85.30;41.40;;;;;;;4.05;100.00;98563.28;273410;1266;22992;-90
2024/02/24 20:51:45;;;;;;;82.80;42.60;;;;;;;4.07;100.00;98566.89;273257;1266;22390;-92
2024/02/24 20:57:54;;;;;;;84.00;42.50;;;;;;;4.07;100.00;98566.05;273358;1265;23321;-91
2024/02/24 21:04:03;;;;;;;90.10;45.20;;;;;;;4.06;100.00;98560.75;273527;1266;23127;-92
2024/02/24 21:10:08;;;;;;;80.10;40.50;;;;;;;4.00;100.00;98560.27;273402;1266;23961;-92
2024/02/24 21:16:15;;;;;;;102.30;50.90;;;;;;;3.98;100.00;98561.67;273392;1266;22482;-91
2024/02/24 21:22:19;;;;;;;65.40;34.50;;;;;;;3.90;100.00;98556.33;273432;1266;22432;-91
2024/02/24 21:28:24;;;;;;;97.40;44.10;;;;;;;3.80;100.00;98553.69;273248;1266;23380;-92
2024/02/24 21:34:31;;;;;;;100.40;48.80;;;;;;;3.77;100.00;98551.77;273237;1266;22423;-91
2024/02/24 21:40:37;;;;;;;95.70;49.60;;;;;;;3.75;100.00;98541.40;273441;1266;22425;-92
2024/02/24 21:46:40;;;;;;;;;;;;;;;3.69;100.00;98544.45;273371;1266;23024;-91
2024/02/24 21:52:48;;;;;;;101.10;53.20;;;;;;;3.65;100.00;98543.63;273338;1266;22423;-92
2024/02/24 21:58:51;;;;;;;86.90;49.60;;;;;;;3.66;100.00;98543.20;273200;1266;22431;-90
2024/02/24 22:04:55;;;;;;;83.90;44.00;;;;;;;3.66;100.00;98537.63;273332;1266;23633;-90
2024/02/24 22:10:59;;;;;;;84.20;44.00;;;;;;;3.56;100.00;98542.26;273604;1266;22378;-91
2024/02/24 22:17:03;;;;;;;78.40;43.50;;;;;;;3.49;100.00;98537.73;273457;1266;22433;-91
2024/02/24 22:23:06;;;;;;;76.10;44.80;;;;;;;3.42;100.00;98539.20;273505;1265;22415;-91
2024/02/24 22:29:12;;;;;;;70.30;42.30;;;;;;;3.39;100.00;98535.31;273459;1266;23577;-91
2024/02/24 22:35:17;;;;;;;73.80;42.30;;;;;;;3.32;100.00;98532.31;273355;1266;22200;-91
2024/02/24 22:41:38;;;;;;;66.50;37.80;;;;;;;3.23;100.00;98533.17;273496;1266;22279;-90
2024/02/24 22:47:44;;;;;;;69.30;38.10;;;;;;;3.18;100.00;98538.60;273416;1266;23702;-91
2024/02/24 22:53:53;;;;;;;71.10;39.00;;;;;;;3.15;100.00;98539.05;273332;1266;22339;-91
2024/02/24 23:00:36;;;;;;;71.90;38.70;;;;;;;3.09;100.00;98559.84;273537;1266;22398;-92
2024/02/24 23:06:53;;;;;;;72.00;41.60;;;;;;;3.07;100.00;98570.75;273603;1265;23422;-92
2024/02/24 23:13:04;;;;;;;92.00;49.20;;;;;;;3.01;100.00;98557.96;273480;1265;23294;-92
2024/02/24 23:19:11;;;;;;;80.20;42.10;;;;;;;2.94;100.00;98555.89;273474;1266;23013;-93
2024/02/24 23:25:18;;;;;;;79.20;42.60;;;;;;;2.86;100.00;98541.77;273467;1266;22304;-91
2024/02/24 23:31:26;;;;;;;95.50;51.00;;;;;;;2.76;100.00;98536.40;273398;1266;23206;-92
2024/02/24 23:37:36;;;;;;;90.40;48.70;;;;;;;2.71;100.00;98532.99;273581;1266;23673;-92
2024/02/24 23:43:41;;;;;;;76.90;41.40;;;;;;;2.64;100.00;98529.52;273527;1266;22371;-92
2024/02/24 23:49:55;;;;;;;63.80;33.10;;;;;;;2.58;100.00;98530.15;273181;1266;22369;-91
2024/02/24 23:56:02;;;;;;;71.00;39.50;;;;;;;2.53;100.00;98529.73;273377;1260;22460;-92
